Time;durP1;ratioP1;P1;durP2;ratioP2;P2;SDS_P1;SDS_P2;PMS_P1;PMS_P2;Temp;Humidity;BMP_temperature;BMP_pressure;BME280_temperature;BME280_humidity;BME280_pressure;Samples;Min_cycle;Max_cycle;Signal;HPM_P1;HPM_P2
2022/10/04 00:00:10;;;;;;;3.50;2.43;;;11.00;75.00;10.90;97163.00;;;;5071323;28;20175;-86
2022/10/04 00:02:39;;;;;;;3.00;2.57;;;10.90;75.00;10.80;97155.00;;;;5070668;28;20693;-86
2022/10/04 00:05:15;;;;;;;2.40;2.20;;;10.90;75.00;10.80;97160.00;;;;5065017;28;20796;-86
2022/10/04 00:07:52;;;;;;;3.00;2.67;;;10.90;75.00;10.80;97147.00;;;;5051406;28;20697;-85
2022/10/04 00:10:25;;;;;;;2.73;2.10;;;10.90;74.90;10.80;97156.00;;;;5052008;28;20183;-85
2022/10/04 00:12:58;;;;;;;2.93;2.00;;;10.90;75.00;10.70;97155.00;;;;5068728;28;20224;-86
2022/10/04 00:15:30;;;;;;;2.50;2.30;;;10.80;74.90;10.70;97154.00;;;;5059090;28;20299;-85
2022/10/04 00:18:18;;;;;;;3.47;2.43;;;10.80;74.90;10.70;97150.00;;;;5050636;28;20650;-86
2022/10/04 00:21:12;;;;;;;4.33;2.53;;;10.70;74.80;10.60;97150.00;;;;5063202;28;20666;-86
2022/10/04 00:23:47;;;;;;;3.07;2.10;;;10.70;74.60;10.60;97151.00;;;;5014591;28;20312;-86
2022/10/04 00:27:09;;;;;;;2.27;2.07;;;10.70;74.80;10.60;97143.00;;;;5068077;28;20287;-86
2022/10/04 00:29:40;;;;;;;2.30;2.10;;;10.70;74.80;10.50;97140.00;;;;5057492;28;20200;-86
2022/10/04 00:32:30;;;;;;;2.40;2.00;;;10.70;74.90;10.50;97135.00;;;;5057812;28;20188;-86
2022/10/04 00:34:59;;;;;;;3.70;2.40;;;10.60;74.80;10.50;97143.00;;;;5056961;28;20282;-86
2022/10/04 00:37:32;;;;;;;2.57;2.10;;;10.60;75.00;10.50;97151.00;;;;5066618;28;20283;-86
2022/10/04 00:40:12;;;;;;;3.23;2.30;;;10.50;75.00;10.50;97151.00;;;;5071020;28;20207;-85
2022/10/04 00:42:56;;;;;;;3.10;2.27;;;10.50;75.10;10.40;97144.00;;;;5074237;28;20542;-86
2022/10/04 00:45:33;;;;;;;3.13;2.60;;;10.50;75.00;10.40;97150.00;;;;5061267;28;20247;-86
2022/10/04 00:48:25;;;;;;;2.10;2.00;;;10.50;75.00;10.40;97134.00;;;;5056897;28;20207;-86
2022/10/04 00:50:58;;;;;;;2.57;2.20;;;10.50;75.10;10.40;97138.00;;;;5060902;28;20191;-88
2022/10/04 00:53:47;;;;;;;2.43;2.10;;;10.50;75.10;10.40;97138.00;;;;5072306;28;20190;-87
2022/10/04 00:56:25;;;;;;;3.03;2.73;;;10.50;75.00;10.30;97128.00;;;;5073449;28;20629;-87
2022/10/04 00:59:28;;;;;;;2.70;2.47;;;10.40;75.00;10.30;97142.00;;;;5071304;28;20563;-86
2022/10/04 01:02:02;;;;;;;2.93;2.30;;;10.40;74.90;10.30;97130.00;;;;5040447;28;20199;-86
2022/10/04 01:04:42;;;;;;;3.70;2.07;;;10.40;75.00;10.30;97119.00;;;;5073519;28;20251;-86
2022/10/04 01:07:13;;;;;;;3.77;2.27;;;10.40;75.00;10.20;97125.00;;;;5071082;28;20246;-85
2022/10/04 01:09:53;;;;;;;2.93;2.13;;;10.40;75.00;10.20;97116.00;;;;5072471;28;20184;-85
2022/10/04 01:12:41;;;;;;;2.27;2.07;;;10.30;75.30;10.20;97113.00;;;;5072653;28;20191;-86
2022/10/04 01:15:16;;;;;;;2.93;1.97;;;10.30;74.80;10.20;97120.00;;;;5069880;28;20215;-86
2022/10/04 01:18:09;;;;;;;2.20;2.00;;;10.30;74.90;10.20;97107.00;;;;5072997;28;20287;-86
2022/10/04 01:20:41;;;;;;;2.30;2.10;;;10.30;74.70;10.10;97110.00;;;;5065883;28;20717;-86
2022/10/04 01:23:11;;;;;;;2.43;2.23;;;10.20;74.80;10.10;97112.00;;;;5060048;28;20195;-86
2022/10/04 01:25:48;;;;;;;3.23;1.97;;;10.10;74.90;10.10;97108.00;;;;5064968;28;20188;-86
2022/10/04 01:28:16;;;;;;;3.33;2.03;;;10.20;75.00;10.10;97107.00;;;;5066012;28;20291;-85
2022/10/04 01:30:44;;;;;;;2.60;2.40;;;10.20;75.10;10.10;97109.00;;;;5073495;28;20227;-86
2022/10/04 01:33:13;;;;;;;1.73;1.63;;;10.20;75.00;10.10;97112.00;;;;5055547;28;20674;-86
2022/10/04 01:35:41;;;;;;;2.67;1.97;;;10.20;74.90;10.00;97116.00;;;;5074469;28;20280;-87
2022/10/04 01:38:10;;;;;;;2.90;2.00;;;10.10;74.90;10.00;97108.00;;;;5076884;28;20406;-86
2022/10/04 01:40:46;;;;;;;2.40;1.87;;;10.10;75.70;10.00;97103.00;;;;5065811;28;20646;-86
2022/10/04 01:43:22;;;;;;;2.17;1.97;;;10.20;75.00;10.00;97099.00;;;;5054947;28;20235;-85
2022/10/04 01:45:55;;;;;;;2.10;2.00;;;10.10;75.00;10.00;97092.00;;;;5055639;28;20276;-86
2022/10/04 01:48:30;;;;;;;2.20;2.00;;;10.10;74.90;9.90;97096.00;;;;5053044;28;20217;-87
2022/10/04 01:51:04;;;;;;;1.97;1.87;;;10.10;75.00;9.90;97093.00;;;;5053896;28;20231;-85
2022/10/04 01:53:42;;;;;;;2.00;1.83;;;10.10;75.10;9.90;97085.00;;;;5051567;28;20689;-86
2022/10/04 01:56:16;;;;;;;3.13;1.97;;;10.00;75.00;9.90;97077.00;;;;5053139;28;20180;-85
2022/10/04 01:58:48;;;;;;;1.87;1.77;;;10.00;75.00;9.90;97078.00;;;;5071748;28;20192;-86
2022/10/04 02:01:25;;;;;;;3.10;2.00;;;10.00;75.00;9.90;97075.00;;;;5072394;28;20272;-85
2022/10/04 02:04:00;;;;;;;2.07;1.90;;;10.00;75.00;9.90;97078.00;;;;5070976;28;20211;-86
2022/10/04 02:06:29;;;;;;;2.83;2.30;;;10.00;75.00;9.80;97075.00;;;;5072956;28;20270;-86
2022/10/04 02:08:59;;;;;;;1.90;1.80;;;9.90;74.90;9.80;97082.00;;;;5062280;28;20311;-86
2022/10/04 02:11:30;;;;;;;4.40;2.30;;;9.90;75.00;9.80;97081.00;;;;5052990;28;20192;-85
2022/10/04 02:13:57;;;;;;;2.37;2.17;;;10.00;75.20;9.80;97077.00;;;;5053687;28;20231;-86
2022/10/04 02:16:26;;;;;;;7.67;2.67;;;9.90;75.20;9.80;97085.00;;;;5072242;28;20192;-86
2022/10/04 02:18:55;;;;;;;3.17;2.80;;;9.90;75.20;9.80;97081.00;;;;5072613;28;20206;-86
2022/10/04 02:21:23;;;;;;;5.13;2.73;;;9.90;75.20;9.80;97076.00;;;;5070885;28;20204;-86
2022/10/04 02:23:54;;;;;;;4.50;3.27;;;9.90;75.10;9.80;97075.00;;;;5064641;28;20591;-85
2022/10/04 02:26:22;;;;;;;3.03;2.80;;;9.90;75.80;9.70;97074.00;;;;5065767;28;20215;-86
2022/10/04 02:28:51;;;;;;;3.07;2.67;;;9.90;75.10;9.70;97069.00;;;;5052578;28;20217;-86
2022/10/04 02:34:07;;;;;;;2.90;2.60;;;9.80;75.70;9.70;97065.00;;;;5052989;28;20216;-86
2022/10/04 02:36:37;;;;;;;4.17;3.37;;;9.90;75.10;9.70;97073.00;;;;5063791;28;20196;-86
2022/10/04 02:39:10;;;;;;;3.60;3.30;;;9.80;75.10;9.70;97076.00;;;;5060229;28;20204;-86
2022/10/04 02:41:46;;;;;;;3.40;3.10;;;9.80;75.20;9.70;97072.00;;;;5053735;28;20181;-85
2022/10/04 02:44:21;;;;;;;2.60;2.47;;;9.80;75.10;9.70;97072.00;;;;5069804;28;20215;-86
2022/10/04 02:46:54;;;;;;;4.07;2.90;;;9.70;75.10;9.60;97071.00;;;;5051727;28;20730;-86
2022/10/04 02:49:30;;;;;;;2.93;2.70;;;9.70;75.10;9.60;97067.00;;;;5053211;28;20223;-86
2022/10/04 02:52:05;;;;;;;3.20;2.90;;;9.70;75.10;9.60;97064.00;;;;5052772;28;20228;-85
2022/10/04 02:54:41;;;;;;;2.90;2.60;;;9.70;75.00;9.60;97066.00;;;;5052031;28;20247;-85
2022/10/04 02:57:18;;;;;;;2.70;2.50;;;9.70;75.00;9.60;97064.00;;;;5052277;28;20388;-86
2022/10/04 02:59:45;;;;;;;4.73;2.77;;;9.70;75.10;9.60;97076.00;;;;5057459;28;20202;-87
2022/10/04 03:02:26;;;;;;;3.53;3.10;;;9.70;75.20;9.60;97086.00;;;;5052415;28;20199;-86
2022/10/04 03:04:56;;;;;;;3.10;2.70;;;9.70;75.10;9.60;97079.00;;;;5069317;28;20222;-86
2022/10/04 03:07:24;;;;;;;2.90;2.70;;;9.70;75.20;9.50;97081.00;;;;5072144;28;20231;-86
2022/10/04 03:09:52;;;;;;;3.50;2.90;;;9.60;75.20;9.50;97071.00;;;;5064841;28;20790;-86
2022/10/04 03:12:22;;;;;;;3.03;2.80;;;9.50;75.90;9.50;97061.00;;;;5052175;28;20283;-87
2022/10/04 03:14:52;;;;;;;5.10;3.27;;;9.60;75.30;9.50;97073.00;;;;5051779;28;20217;-86
2022/10/04 03:17:20;;;;;;;3.20;2.90;;;9.60;75.50;9.50;97074.00;;;;5066181;28;20581;-86
2022/10/04 03:19:49;;;;;;;3.63;2.77;;;9.60;75.70;9.50;97059.00;;;;5056161;28;20242;-86
2022/10/04 03:22:17;;;;;;;2.83;2.60;;;9.70;75.80;9.50;97051.00;;;;5071140;28;20303;-85
2022/10/04 03:24:47;;;;;;;2.90;2.70;;;9.70;75.90;9.50;97060.00;;;;5069163;28;20303;-86
2022/10/04 03:27:23;;;;;;;5.70;2.67;;;9.70;76.80;9.60;97063.00;;;;5053573;28;20212;-86
2022/10/04 03:29:51;;;;;;;3.33;2.50;;;9.80;76.30;9.60;97067.00;;;;5071528;28;20191;-85
2022/10/04 03:32:20;;;;;;;3.27;2.40;;;9.70;76.90;9.60;97066.00;;;;5064653;28;20237;-86
2022/10/04 03:34:55;;;;;;;2.60;2.30;;;10.10;76.40;9.60;97065.00;;;;5054074;28;20764;-86
2022/10/04 03:37:24;;;;;;;2.60;2.40;;;9.70;75.90;9.60;97061.00;;;;5071076;28;20214;-86
2022/10/04 03:39:55;;;;;;;2.60;2.40;;;9.70;75.80;9.60;97055.00;;;;5071128;28;20280;-86
2022/10/04 03:42:28;;;;;;;2.60;2.40;;;9.70;75.80;9.60;97061.00;;;;5051734;28;20200;-86
2022/10/04 03:45:00;;;;;;;3.73;2.63;;;9.70;75.90;9.60;97060.00;;;;5069485;28;20219;-86
2022/10/04 03:47:32;;;;;;;2.63;2.30;;;9.70;75.90;9.60;97064.00;;;;5051606;28;20893;-86
2022/10/04 03:50:06;;;;;;;2.43;2.23;;;9.70;75.70;9.50;97065.00;;;;5051735;28;20189;-86
2022/10/04 03:52:37;;;;;;;3.00;2.13;;;9.70;75.70;9.50;97060.00;;;;5052131;28;20276;-86
2022/10/04 03:55:08;;;;;;;2.67;2.47;;;9.70;75.70;9.50;97052.00;;;;5057246;28;20247;-86
2022/10/04 03:57:37;;;;;;;2.20;2.00;;;9.70;75.80;9.50;97057.00;;;;5071734;28;20192;-86
2022/10/04 04:00:06;;;;;;;2.50;2.30;;;10.10;76.00;9.50;97056.00;;;;5066415;28;20282;-86
2022/10/04 04:02:41;;;;;;;2.17;2.07;;;9.60;75.60;9.50;97054.00;;;;5070303;28;20307;-86
2022/10/04 04:05:18;;;;;;;2.00;1.90;;;9.60;75.50;9.50;97063.00;;;;5055184;28;20325;-89
2022/10/04 04:07:57;;;;;;;1.90;1.80;;;9.60;75.50;9.50;97060.00;;;;5070086;28;20207;-89
2022/10/04 04:10:29;;;;;;;1.90;1.80;;;9.70;75.50;9.50;97056.00;;;;5071558;28;20180;-88
2022/10/04 04:13:07;;;;;;;1.77;1.67;;;9.60;75.50;9.40;97061.00;;;;5068613;28;20274;-87
2022/10/04 04:15:35;;;;;;;3.00;2.80;;;9.60;75.40;9.40;97054.00;;;;5050535;28;20302;-87
2022/10/04 04:18:06;;;;;;;2.40;2.20;;;9.60;75.50;9.40;97056.00;;;;5065981;28;20192;-88
2022/10/04 04:20:37;;;;;;;2.13;1.90;;;9.50;75.50;9.40;97062.00;;;;5071833;28;20657;-88
2022/10/04 04:23:22;;;;;;;2.83;2.10;;;9.50;75.60;9.40;97062.00;;;;5070519;28;20816;-88
2022/10/04 04:25:55;;;;;;;1.80;1.70;;;9.50;76.00;9.40;97060.00;;;;5070489;28;20233;-88
2022/10/04 04:28:31;;;;;;;2.00;1.80;;;9.60;76.20;9.40;97070.00;;;;5067933;28;20697;-88
2022/10/04 04:31:04;;;;;;;2.93;1.70;;;9.50;76.20;9.40;97070.00;;;;5049951;28;20640;-88
2022/10/04 04:33:37;;;;;;;1.57;1.47;;;9.50;76.10;9.40;97065.00;;;;5055325;28;20239;-88
2022/10/04 04:36:07;;;;;;;2.83;1.50;;;9.50;76.00;9.40;97067.00;;;;5070385;28;20311;-89
2022/10/04 04:39:32;;;;;;;1.70;1.60;;;9.50;75.90;9.40;97051.00;;;;5064073;28;20192;-88
2022/10/04 04:41:24;;;;;;;1.90;1.80;;;9.40;75.80;9.40;97060.00;;;;5063726;28;20192;-88
2022/10/04 04:43:52;;;;;;;1.70;1.60;;;9.50;75.90;9.40;97062.00;;;;5069679;28;20246;-87
2022/10/04 04:46:20;;;;;;;2.00;1.80;;;9.50;75.90;9.30;97061.00;;;;5051144;28;20205;-88
2022/10/04 04:48:58;;;;;;;2.27;2.07;;;9.50;76.50;9.30;97066.00;;;;5049633;28;20671;-89
2022/10/04 04:51:26;;;;;;;2.07;1.97;;;9.50;75.70;9.30;97068.00;;;;5049445;28;20199;-88
2022/10/04 04:53:55;;;;;;;1.90;1.80;;;9.50;75.60;9.30;97071.00;;;;5050272;28;20299;-89
2022/10/04 04:56:27;;;;;;;2.27;2.13;;;9.50;75.60;9.30;97069.00;;;;5064606;28;20200;-89
2022/10/04 04:59:02;;;;;;;2.70;1.80;;;9.40;75.60;9.30;97060.00;;;;5051286;28;20280;-88
2022/10/04 05:01:35;;;;;;;1.90;1.80;;;9.40;75.70;9.30;97057.00;;;;5050955;28;20238;-89
2022/10/04 05:04:05;;;;;;;1.70;1.60;;;9.50;75.90;9.30;97061.00;;;;5050830;28;20223;-88
2022/10/04 05:06:35;;;;;;;1.90;1.80;;;9.40;75.90;9.30;97060.00;;;;5061977;28;20283;-88
2022/10/04 05:09:04;;;;;;;1.63;1.53;;;9.40;76.00;9.30;97056.00;;;;5069754;28;20224;-89
2022/10/04 05:11:36;;;;;;;1.80;1.70;;;9.40;75.80;9.30;97059.00;;;;5072852;28;20199;-88
2022/10/04 05:14:09;;;;;;;2.30;2.07;;;9.40;75.70;9.30;97064.00;;;;5074436;28;20308;-88
2022/10/04 05:16:43;;;;;;;2.03;1.93;;;9.40;75.80;9.30;97073.00;;;;5051027;28;20185;-89
2022/10/04 05:19:20;;;;;;;1.80;1.70;;;9.40;76.00;9.30;97068.00;;;;5050869;28;20264;-89
2022/10/04 05:21:49;;;;;;;2.00;1.80;;;9.50;76.20;9.30;97048.00;;;;5053660;28;20208;-89
2022/10/04 05:24:23;;;;;;;2.10;1.90;;;9.40;76.20;9.40;97049.00;;;;5064572;28;20223;-89
2022/10/04 05:26:53;;;;;;;2.30;2.00;;;9.40;76.30;9.40;97054.00;;;;5060134;28;20279;-90
2022/10/04 05:29:27;;;;;;;1.80;1.70;;;9.40;76.50;9.50;97050.00;;;;5052727;28;20252;-89
2022/10/04 05:32:07;;;;;;;1.97;1.87;;;9.50;76.80;9.60;97043.00;;;;5077082;28;20191;-88
2022/10/04 05:34:40;;;;;;;2.00;1.90;;;9.50;76.90;9.60;97050.00;;;;5077406;28;21155;-88
2022/10/04 05:37:42;;;;;;;2.10;2.00;;;9.50;77.10;9.70;97058.00;;;;5056769;28;20271;-89
2022/10/04 05:40:31;;;;;;;2.33;2.13;;;9.60;77.40;9.80;97064.00;;;;5067722;28;20203;-88
2022/10/04 05:42:59;;;;;;;2.40;2.17;;;9.60;77.40;9.80;97063.00;;;;5074058;28;20552;-89
2022/10/04 05:45:30;;;;;;;4.70;2.63;;;9.70;77.40;9.90;97078.00;;;;5068052;28;20212;-88
2022/10/04 05:48:00;;;;;;;3.03;2.77;;;9.80;77.60;9.90;97094.00;;;;5064750;28;20271;-89
2022/10/04 05:50:34;;;;;;;2.57;2.37;;;9.70;77.50;9.90;97091.00;;;;5069110;28;20626;-88
2022/10/04 05:53:23;;;;;;;4.10;2.80;;;9.80;77.60;10.00;97097.00;;;;5073962;28;20267;-89
2022/10/04 05:56:01;;;;;;;2.90;2.60;;;9.80;77.70;10.00;97083.00;;;;5067423;28;20197;-88
2022/10/04 05:58:48;;;;;;;2.70;2.50;;;9.90;77.90;10.10;97073.00;;;;5069881;28;20291;-89
2022/10/04 06:01:33;;;;;;;2.97;2.77;;;9.90;77.90;10.10;97075.00;;;;5060887;28;20283;-89
2022/10/04 06:04:37;;;;;;;3.07;2.53;;;10.00;77.90;10.20;97081.00;;;;5058750;28;20224;-87
2022/10/04 06:07:18;;;;;;;3.30;3.00;;;10.10;78.20;10.20;97061.00;;;;5032757;28;20203;-88
2022/10/04 06:10:40;;;;;;;3.00;2.70;;;10.10;78.20;10.30;97077.00;;;;5054556;28;20266;-88
2022/10/04 06:13:28;;;;;;;2.80;2.60;;;10.20;78.40;10.40;97070.00;;;;5002074;28;20518;-88
2022/10/04 06:16:18;;;;;;;3.00;2.70;;;10.20;78.40;10.50;97063.00;;;;5068585;28;20250;-88
2022/10/04 06:19:27;;;;;;;3.60;3.30;;;10.30;78.40;10.60;97069.00;;;;5063234;28;20257;-88
2022/10/04 06:22:15;;;;;;;3.60;3.30;;;10.40;78.50;10.70;97072.00;;;;5054613;28;20371;-88
2022/10/04 06:24:49;;;;;;;2.90;2.70;;;10.50;79.40;10.70;97070.00;;;;5062412;28;20220;-88
2022/10/04 06:27:27;;;;;;;4.40;2.53;;;10.50;78.70;10.80;97074.00;;;;5051593;28;20196;-88
2022/10/04 06:30:01;;;;;;;2.87;2.47;;;10.60;78.80;10.90;97084.00;;;;5067618;28;20227;-88
2022/10/04 06:33:06;;;;;;;2.60;2.43;;;10.70;79.10;11.00;97087.00;;;;5053940;28;20232;-89
2022/10/04 06:36:12;;;;;;;2.40;2.20;;;10.80;79.10;11.20;97092.00;;;;5055481;28;20212;-89
2022/10/04 06:39:37;;;;;;;2.33;2.13;;;10.90;79.40;11.20;97091.00;;;;5055868;28;20294;-89
2022/10/04 06:42:35;;;;;;;3.47;2.37;;;10.90;80.00;11.30;97073.00;;;;5072881;28;20207;-89
2022/10/04 06:45:28;;;;;;;2.10;2.00;;;11.00;79.50;11.40;97066.00;;;;5062965;28;20299;-89
2022/10/04 06:48:31;;;;;;;3.00;2.70;;;11.20;79.70;11.60;97087.00;;;;5071908;28;20195;-88
2022/10/04 06:51:20;;;;;;;2.97;2.77;;;11.20;79.70;11.70;97076.00;;;;5071179;28;20223;-87
2022/10/04 06:54:04;;;;;;;3.33;2.90;;;11.30;80.50;11.80;97077.00;;;;5070149;28;20299;-88
2022/10/04 06:56:57;;;;;;;3.03;2.83;;;11.40;79.80;11.90;97092.00;;;;5071723;28;20207;-88
2022/10/04 07:00:01;;;;;;;2.73;2.53;;;11.50;79.80;12.00;97095.00;;;;5057842;28;20283;-88
2022/10/04 07:02:35;;;;;;;3.00;2.53;;;11.60;80.00;12.10;97085.00;;;;5047089;28;20287;-88
2022/10/04 07:05:15;;;;;;;3.40;2.37;;;11.70;80.00;12.20;97078.00;;;;5057563;28;20219;-88
2022/10/04 07:07:50;;;;;;;3.13;2.83;;;11.80;80.20;12.30;97082.00;;;;5057014;28;20671;-88
2022/10/04 07:10:39;;;;;;;2.80;2.60;;;11.90;80.50;12.40;97089.00;;;;5052572;28;20558;-88
2022/10/04 07:13:28;;;;;;;3.40;3.10;;;12.00;80.40;12.50;97084.00;;;;5051838;28;20695;-88
2022/10/04 07:16:03;;;;;;;3.17;2.97;;;12.10;80.50;12.60;97083.00;;;;5058356;28;20417;-88
2022/10/04 07:18:37;;;;;;;3.30;2.73;;;12.20;80.50;12.70;97085.00;;;;5059420;28;20629;-87
2022/10/04 07:21:11;;;;;;;6.13;2.90;;;12.30;80.50;12.80;97094.00;;;;5059436;28;20335;-88
2022/10/04 07:23:48;;;;;;;3.60;3.30;;;12.40;80.50;12.90;97098.00;;;;5062106;28;20226;-87
2022/10/04 07:26:26;;;;;;;4.50;4.10;;;12.50;80.40;13.00;97108.00;;;;5055658;28;20202;-88
2022/10/04 07:31:49;;;;;;;4.83;3.57;;;12.70;80.40;13.20;97120.00;;;;5063695;28;20223;-86
2022/10/04 07:34:23;;;;;;;5.47;3.90;;;12.70;80.30;13.20;97123.00;;;;5069723;28;20216;-86
2022/10/04 07:36:54;;;;;;;4.03;3.63;;;12.80;80.30;13.30;97130.00;;;;5070697;28;20302;-85
2022/10/04 07:39:29;;;;;;;4.40;4.00;;;12.90;80.20;13.40;97129.00;;;;5057387;28;20216;-86
2022/10/04 07:42:06;;;;;;;4.10;3.70;;;13.00;80.30;13.60;97133.00;;;;5051501;28;20313;-85
2022/10/04 07:44:38;;;;;;;4.13;3.73;;;13.10;80.40;13.70;97131.00;;;;5062335;28;20219;-85
2022/10/04 07:47:18;;;;;;;5.20;4.30;;;13.20;80.50;13.80;97136.00;;;;5065331;28;20196;-86
2022/10/04 07:49:47;;;;;;;4.23;3.60;;;13.30;80.50;13.90;97137.00;;;;5060934;28;20319;-87
2022/10/04 07:52:51;;;;;;;4.60;4.20;;;13.40;80.50;14.00;97138.00;;;;5066159;28;20686;-86
2022/10/04 07:55:31;;;;;;;4.90;3.97;;;13.50;80.70;14.10;97145.00;;;;5019010;28;20208;-86
2022/10/04 07:58:26;;;;;;;3.80;3.50;;;13.60;80.80;14.20;97138.00;;;;5051442;28;20676;-86
2022/10/04 08:01:00;;;;;;;6.13;3.50;;;13.70;80.70;14.30;97138.00;;;;5051050;28;20280;-86
2022/10/04 08:03:51;;;;;;;4.27;3.40;;;13.80;80.50;14.30;97151.00;;;;5061592;28;20196;-86
2022/10/04 08:06:31;;;;;;;4.10;3.30;;;13.90;80.50;14.40;97149.00;;;;5061854;28;20204;-86
2022/10/04 08:09:34;;;;;;;4.27;3.27;;;14.00;80.40;14.50;97148.00;;;;5062281;28;20311;-86
2022/10/04 08:12:18;;;;;;;3.50;3.17;;;14.10;80.20;14.60;97138.00;;;;5062193;28;20192;-86
2022/10/04 08:15:09;;;;;;;3.47;3.17;;;14.10;80.10;14.70;97144.00;;;;5065239;28;20246;-86
2022/10/04 08:17:56;;;;;;;3.03;2.73;;;14.20;80.20;14.80;97153.00;;;;5057429;28;20196;-86
2022/10/04 08:20:36;;;;;;;8.33;3.97;;;14.30;80.20;14.90;97147.00;;;;5070193;28;20265;-86
2022/10/04 08:23:26;;;;;;;3.83;3.53;;;14.40;81.00;15.00;97142.00;;;;5064123;28;20230;-87
2022/10/04 08:26:10;;;;;;;4.90;3.50;;;14.50;80.50;15.10;97136.00;;;;5063106;28;20198;-87
2022/10/04 08:31:57;;;;;;;5.37;4.80;;;14.70;80.40;15.40;97135.00;;;;5062420;28;20249;-86
2022/10/04 08:34:43;;;;;;;5.77;4.07;;;14.80;80.40;15.50;97133.00;;;;5064895;28;20269;-87
2022/10/04 08:37:29;;;;;;;3.80;3.27;;;14.90;80.30;15.60;97127.00;;;;5067023;28;20290;-87
2022/10/04 08:40:42;;;;;;;3.93;3.17;;;15.00;80.20;15.80;97128.00;;;;5061588;28;20302;-86
2022/10/04 08:44:00;;;;;;;5.73;3.63;;;15.20;80.20;15.90;97132.00;;;;5035960;28;20223;-87
2022/10/04 08:47:09;;;;;;;3.10;2.80;;;15.30;80.10;16.10;97134.00;;;;5008473;28;20276;-87
2022/10/04 08:50:00;;;;;;;3.57;3.07;;;15.50;79.90;16.20;97133.00;;;;5071390;28;20220;-87
2022/10/04 08:53:16;;;;;;;9.63;2.80;;;15.60;80.00;16.30;97133.00;;;;5059810;28;20665;-87
2022/10/04 08:56:13;;;;;;;3.20;1.93;;;15.70;79.90;16.40;97126.00;;;;5066409;28;20227;-87
2022/10/04 08:59:32;;;;;;;2.70;2.27;;;15.80;78.70;16.50;97133.00;;;;5054232;28;20279;-87
2022/10/04 09:02:37;;;;;;;2.17;1.97;;;15.90;78.70;16.60;97140.00;;;;5063422;28;20200;-87
2022/10/04 09:05:32;;;;;;;2.53;1.70;;;16.10;77.80;16.70;97137.00;;;;5074668;28;20583;-86
2022/10/04 09:09:05;;;;;;;4.13;2.53;;;16.20;78.00;16.90;97140.00;;;;5070332;28;20541;-87
2022/10/04 09:12:13;;;;;;;2.80;2.00;;;16.30;78.10;17.00;97142.00;;;;5026055;28;20208;-87
2022/10/04 09:15:41;;;;;;;2.73;2.37;;;16.40;77.90;17.20;97139.00;;;;5069589;28;20299;-87
2022/10/04 09:18:59;;;;;;;2.43;1.90;;;16.60;78.10;17.30;97140.00;;;;5060485;28;20188;-87
2022/10/04 09:21:50;;;;;;;1.87;1.77;;;16.70;78.20;17.40;97138.00;;;;5032178;28;20646;-87
2022/10/04 09:25:00;;;;;;;2.97;2.30;;;16.80;78.00;17.60;97131.00;;;;5068735;28;20227;-87
2022/10/04 09:28:10;;;;;;;2.53;1.80;;;17.00;77.60;17.60;97139.00;;;;5069311;28;20728;-87
2022/10/04 09:30:57;;;;;;;1.70;1.57;;;17.00;76.30;17.70;97151.00;;;;5055952;28;20227;-86
2022/10/04 09:33:56;;;;;;;3.57;2.10;;;17.10;76.70;17.80;97151.00;;;;5068726;28;20278;-87
2022/10/04 09:37:01;;;;;;;2.13;1.50;;;17.20;75.80;17.90;97155.00;;;;5068936;28;20200;-87
2022/10/04 09:40:08;;;;;;;2.87;1.80;;;17.30;75.90;18.00;97151.00;;;;5066933;28;20286;-87
2022/10/04 09:43:20;;;;;;;2.87;1.60;;;17.40;76.20;18.20;97155.00;;;;5071064;28;20245;-87
2022/10/04 09:46:16;;;;;;;1.83;1.50;;;17.50;74.80;18.20;97136.00;;;;5059100;28;20256;-87
2022/10/04 09:49:03;;;;;;;1.90;1.40;;;17.60;74.70;18.30;97140.00;;;;5066750;28;20196;-88
2022/10/04 09:52:08;;;;;;;1.33;1.20;;;17.70;74.60;18.40;97142.00;;;;5072885;28;20200;-87
2022/10/04 09:55:17;;;;;;;2.07;1.50;;;17.90;74.70;18.60;97142.00;;;;5060728;28;20228;-86
2022/10/04 09:58:06;;;;;;;2.07;1.40;;;18.00;73.10;18.70;97147.00;;;;5023724;28;20796;-87
2022/10/04 10:00:44;;;;;;;1.70;1.27;;;18.10;74.60;18.70;97156.00;;;;5072099;28;20235;-86
2022/10/04 10:03:48;;;;;;;1.77;1.37;;;18.20;74.60;18.80;97166.00;;;;5065176;28;20207;-86
2022/10/04 10:06:41;;;;;;;2.13;1.20;;;18.30;73.20;18.90;97164.00;;;;5068110;28;20223;-87
2022/10/04 10:15:27;;;;;;;2.10;1.30;;;18.60;73.50;19.20;97165.00;;;;5067001;28;20234;-88
2022/10/04 10:18:05;;;;;;;4.10;1.47;;;18.70;74.00;19.30;97165.00;;;;5059254;28;20241;-88
2022/10/04 10:21:11;;;;;;;1.73;1.63;;;18.80;74.10;19.40;97165.00;;;;5073856;28;20207;-88
2022/10/04 10:24:15;;;;;;;4.87;1.57;;;18.90;73.10;19.40;97162.00;;;;5073088;28;20307;-87
2022/10/04 10:27:20;;;;;;;3.57;1.60;;;19.00;73.30;19.50;97160.00;;;;5080514;28;20195;-87
2022/10/04 10:30:18;;;;;;;1.20;1.10;;;19.00;73.10;19.50;97152.00;;;;5068003;28;20223;-87
2022/10/04 10:33:32;;;;;;;2.70;1.77;;;19.10;71.70;19.50;97161.00;;;;5060657;28;20655;-88
2022/10/04 10:36:45;;;;;;;2.87;1.77;;;19.10;72.10;19.50;97152.00;;;;5064954;28;20287;-87
2022/10/04 10:40:01;;;;;;;1.30;1.20;;;19.10;70.90;19.50;97155.00;;;;5060121;28;20192;-87
2022/10/04 10:43:03;;;;;;;1.70;1.50;;;19.20;70.60;19.60;97153.00;;;;5036236;28;20188;-88
2022/10/04 10:45:55;;;;;;;1.90;1.43;;;19.20;72.40;19.60;97156.00;;;;5066226;28;20306;-88
2022/10/04 10:48:44;;;;;;;1.23;1.13;;;19.20;70.90;19.50;97154.00;;;;5065877;28;20544;-87
2022/10/04 10:51:19;;;;;;;1.47;1.30;;;19.20;70.80;19.50;97149.00;;;;5067213;28;20307;-88
2022/10/04 10:54:32;;;;;;;1.33;1.23;;;19.20;70.90;19.50;97146.00;;;;5067592;28;20223;-88
2022/10/04 10:57:22;;;;;;;1.40;1.30;;;19.20;69.40;19.50;97162.00;;;;5066403;28;20254;-87
2022/10/04 11:00:19;;;;;;;2.13;1.30;;;19.20;69.60;19.50;97160.00;;;;5072430;28;20223;-88
2022/10/04 11:03:39;;;;;;;3.67;1.57;;;19.10;70.10;19.50;97162.00;;;;5063418;28;20188;-88
2022/10/04 11:07:19;;;;;;;2.43;1.40;;;19.20;70.30;19.50;97161.00;;;;5063822;28;20191;-89
2022/10/04 11:10:33;;;;;;;2.20;1.30;;;19.10;70.20;19.40;97159.00;;;;5019211;28;20258;-87
2022/10/04 11:14:11;;;;;;;3.07;1.80;;;19.10;70.60;19.40;97158.00;;;;5072376;28;20282;-88
2022/10/04 11:17:19;;;;;;;2.40;1.70;;;19.10;70.00;19.40;97158.00;;;;5008813;28;20220;-85
2022/10/04 11:20:41;;;;;;;3.00;1.27;;;19.10;70.80;19.50;97160.00;;;;5007792;28;20292;-86
2022/10/04 11:24:03;;;;;;;3.60;1.63;;;19.10;70.60;19.50;97157.00;;;;5059920;28;20556;-87
2022/10/04 11:27:33;;;;;;;1.90;1.53;;;19.10;69.90;19.50;97162.00;;;;5072501;28;20242;-87
2022/10/04 11:30:16;;;;;;;2.43;1.30;;;19.10;70.20;19.50;97146.00;;;;4972118;28;20386;-87
2022/10/04 11:33:35;;;;;;;2.43;1.30;;;19.10;70.00;19.60;97140.00;;;;4975275;28;20732;-86
2022/10/04 11:36:45;;;;;;;1.67;1.50;;;19.20;70.70;19.60;97142.00;;;;5058311;28;20774;-87
2022/10/04 11:39:54;;;;;;;3.70;1.43;;;19.20;70.40;19.60;97147.00;;;;5072751;28;20192;-87
2022/10/04 11:42:44;;;;;;;1.83;1.30;;;19.20;69.60;19.60;97138.00;;;;5054178;28;20239;-86
2022/10/04 11:45:54;;;;;;;1.40;1.20;;;19.20;69.70;19.60;97133.00;;;;5052771;28;20286;-87
2022/10/04 11:48:37;;;;;;;1.97;1.30;;;19.20;69.90;19.60;97133.00;;;;5053240;28;20200;-88
2022/10/04 11:52:08;;;;;;;1.87;1.07;;;19.20;70.10;19.60;97129.00;;;;5067857;28;20235;-88
2022/10/04 11:55:22;;;;;;;2.03;1.47;;;19.20;69.30;19.70;97118.00;;;;5053110;28;20761;-88
2022/10/04 11:57:58;;;;;;;2.03;1.40;;;19.20;69.00;19.70;97117.00;;;;5068330;28;20192;-87
2022/10/04 12:00:43;;;;;;;1.30;1.13;;;19.20;70.40;19.70;97113.00;;;;5071931;28;20206;-86
2022/10/04 12:04:04;;;;;;;1.50;1.30;;;19.30;70.50;19.70;97120.00;;;;5070122;28;20199;-89
2022/10/04 12:06:59;;;;;;;1.83;1.13;;;19.30;69.00;19.80;97128.00;;;;5050171;28;20238;-87
2022/10/04 12:09:40;;;;;;;1.33;1.03;;;19.30;69.50;19.80;97122.00;;;;5052808;28;20616;-87
2022/10/04 12:12:39;;;;;;;2.10;1.30;;;19.30;69.70;19.80;97124.00;;;;5058256;28;20275;-87
2022/10/04 12:15:44;;;;;;;0.87;0.83;;;19.40;67.90;19.80;97118.00;;;;5061170;28;20220;-86
2022/10/04 12:19:00;;;;;;;1.63;1.17;;;19.40;68.30;19.80;97114.00;;;;5058943;28;20242;-86
2022/10/04 12:21:49;;;;;;;2.50;1.30;;;19.40;67.50;19.80;97108.00;;;;5052852;28;20307;-86
2022/10/04 12:24:50;;;;;;;1.63;1.07;;;19.40;68.10;19.80;97111.00;;;;5051965;28;20221;-86
2022/10/04 12:27:57;;;;;;;2.43;1.17;;;19.50;68.20;19.90;97113.00;;;;5049309;28;20192;-86
2022/10/04 12:30:43;;;;;;;1.23;0.80;;;19.50;67.60;19.90;97104.00;;;;5051820;28;20676;-86
2022/10/04 12:33:22;;;;;;;1.43;1.10;;;19.50;68.80;19.90;97111.00;;;;5052429;28;20616;-86